sensor_id;sensor_type;location;lat;lon;timestamp;P1;durP1;ratioP1;P2;durP2;ratioP2
70829;SDS011;58451;51.550;7.208;2022-09-20T00:01:30;11.40;;;2.00;;
70829;SDS011;58451;51.550;7.208;2022-09-20T00:04:00;14.30;;;2.60;;
70829;SDS011;58451;51.550;7.208;2022-09-20T00:06:31;12.70;;;2.50;;
70829;SDS011;58451;51.550;7.208;2022-09-20T00:08:59;10.40;;;2.10;;
70829;SDS011;58451;51.550;7.208;2022-09-20T00:11:31;14.40;;;2.60;;
70829;SDS011;58451;51.550;7.208;2022-09-20T00:14:00;11.80;;;2.20;;
70829;SDS011;58451;51.550;7.208;2022-09-20T00:16:31;9.10;;;2.00;;
70829;SDS011;58451;51.550;7.208;2022-09-20T00:19:00;9.30;;;2.00;;
70829;SDS011;58451;51.550;7.208;2022-09-20T00:21:33;10.70;;;2.40;;
70829;SDS011;58451;51.550;7.208;2022-09-20T00:24:01;10.60;;;2.10;;
70829;SDS011;58451;51.550;7.208;2022-09-20T00:26:29;14.10;;;2.40;;
70829;SDS011;58451;51.550;7.208;2022-09-20T00:28:56;11.00;;;2.30;;
70829;SDS011;58451;51.550;7.208;2022-09-20T00:31:23;13.10;;;2.60;;
70829;SDS011;58451;51.550;7.208;2022-09-20T00:33:57;10.80;;;2.40;;
70829;SDS011;58451;51.550;7.208;2022-09-20T00:36:43;11.30;;;1.90;;
70829;SDS011;58451;51.550;7.208;2022-09-20T00:39:12;11.30;;;2.70;;
70829;SDS011;58451;51.550;7.208;2022-09-20T00:41:40;12.00;;;2.80;;
70829;SDS011;58451;51.550;7.208;2022-09-20T00:50:27;9.80;;;2.20;;
70829;SDS011;58451;51.550;7.208;2022-09-20T00:53:12;13.20;;;2.50;;
70829;SDS011;58451;51.550;7.208;2022-09-20T00:58:20;13.40;;;2.40;;
70829;SDS011;58451;51.550;7.208;2022-09-20T01:00:54;7.80;;;2.00;;
70829;SDS011;58451;51.550;7.208;2022-09-20T01:03:27;14.90;;;2.70;;
70829;SDS011;58451;51.550;7.208;2022-09-20T01:06:00;10.70;;;2.20;;
70829;SDS011;58451;51.550;7.208;2022-09-20T01:08:33;14.40;;;2.70;;
70829;SDS011;58451;51.550;7.208;2022-09-20T01:11:02;14.80;;;2.70;;
70829;SDS011;58451;51.550;7.208;2022-09-20T01:13:28;12.60;;;2.70;;
70829;SDS011;58451;51.550;7.208;2022-09-20T01:15:56;10.60;;;2.30;;
70829;SDS011;58451;51.550;7.208;2022-09-20T01:18:27;12.20;;;2.40;;
70829;SDS011;58451;51.550;7.208;2022-09-20T01:20:58;12.10;;;2.60;;
70829;SDS011;58451;51.550;7.208;2022-09-20T01:29:12;13.40;;;2.70;;
70829;SDS011;58451;51.550;7.208;2022-09-20T01:31:52;11.30;;;2.80;;
70829;SDS011;58451;51.550;7.208;2022-09-20T01:34:35;16.40;;;3.20;;
70829;SDS011;58451;51.550;7.208;2022-09-20T01:45:57;16.10;;;3.30;;
70829;SDS011;58451;51.550;7.208;2022-09-20T01:48:37;14.00;;;2.90;;
70829;SDS011;58451;51.550;7.208;2022-09-20T02:00:03;10.70;;;2.80;;
70829;SDS011;58451;51.550;7.208;2022-09-20T02:12:18;9.80;;;3.10;;
70829;SDS011;58451;51.550;7.208;2022-09-20T02:24:00;10.50;;;2.20;;
70829;SDS011;58451;51.550;7.208;2022-09-20T02:55:17;14.30;;;3.30;;
70829;SDS011;58451;51.550;7.208;2022-09-20T03:01:12;16.20;;;4.00;;
70829;SDS011;58451;51.550;7.208;2022-09-20T03:07:11;15.40;;;4.00;;
70829;SDS011;58451;51.550;7.208;2022-09-20T03:24:55;17.80;;;4.20;;
70829;SDS011;58451;51.550;7.208;2022-09-20T03:34:23;14.10;;;4.60;;
70829;SDS011;58451;51.550;7.208;2022-09-20T03:40:41;14.50;;;4.10;;
70829;SDS011;58451;51.550;7.208;2022-09-20T03:42:53;16.40;;;4.20;;
70829;SDS011;58451;51.550;7.208;2022-09-20T03:45:40;14.50;;;3.90;;
70829;SDS011;58451;51.550;7.208;2022-09-20T04:01:26;12.30;;;3.90;;
70829;SDS011;58451;51.550;7.208;2022-09-20T04:16:26;11.80;;;3.10;;
70829;SDS011;58451;51.550;7.208;2022-09-20T04:22:07;14.80;;;4.70;;
70829;SDS011;58451;51.550;7.208;2022-09-20T04:25:02;14.50;;;4.20;;
70829;SDS011;58451;51.550;7.208;2022-09-20T04:27:49;18.30;;;4.20;;
70829;SDS011;58451;51.550;7.208;2022-09-20T04:30:30;15.40;;;4.30;;
70829;SDS011;58451;51.550;7.208;2022-09-20T04:33:07;13.80;;;3.90;;
70829;SDS011;58451;51.550;7.208;2022-09-20T05:00:41;16.40;;;4.90;;
70829;SDS011;58451;51.550;7.208;2022-09-20T05:25:20;17.00;;;4.50;;
70829;SDS011;58451;51.550;7.208;2022-09-20T05:30:45;12.00;;;4.20;;
70829;SDS011;58451;51.550;7.208;2022-09-20T05:34:03;11.10;;;3.30;;
70829;SDS011;58451;51.550;7.208;2022-09-20T05:36:58;17.70;;;4.60;;
70829;SDS011;58451;51.550;7.208;2022-09-20T05:40:02;14.80;;;3.90;;
70829;SDS011;58451;51.550;7.208;2022-09-20T05:42:43;13.10;;;3.80;;
70829;SDS011;58451;51.550;7.208;2022-09-20T05:48:26;16.30;;;4.00;;
70829;SDS011;58451;51.550;7.208;2022-09-20T05:58:21;16.90;;;4.70;;
70829;SDS011;58451;51.550;7.208;2022-09-20T06:01:03;16.60;;;4.70;;
70829;SDS011;58451;51.550;7.208;2022-09-20T06:03:49;19.10;;;5.70;;
70829;SDS011;58451;51.550;7.208;2022-09-20T06:06:42;14.70;;;5.00;;
70829;SDS011;58451;51.550;7.208;2022-09-20T06:16:05;13.80;;;3.80;;
70829;SDS011;58451;51.550;7.208;2022-09-20T06:18:57;20.60;;;5.20;;
70829;SDS011;58451;51.550;7.208;2022-09-20T06:21:49;14.40;;;4.00;;
70829;SDS011;58451;51.550;7.208;2022-09-20T06:24:27;14.30;;;4.60;;
70829;SDS011;58451;51.550;7.208;2022-09-20T06:27:07;16.50;;;4.50;;
70829;SDS011;58451;51.550;7.208;2022-09-20T06:29:42;11.80;;;4.20;;
70829;SDS011;58451;51.550;7.208;2022-09-20T06:32:17;12.90;;;4.70;;
70829;SDS011;58451;51.550;7.208;2022-09-20T06:34:45;16.80;;;5.20;;
70829;SDS011;58451;51.550;7.208;2022-09-20T06:40:41;15.80;;;5.50;;
70829;SDS011;58451;51.550;7.208;2022-09-20T06:43:30;11.10;;;3.50;;
70829;SDS011;58451;51.550;7.208;2022-09-20T06:45:57;13.30;;;4.20;;
70829;SDS011;58451;51.550;7.208;2022-09-20T06:48:24;15.70;;;5.10;;
70829;SDS011;58451;51.550;7.208;2022-09-20T06:50:51;15.60;;;4.50;;
70829;SDS011;58451;51.550;7.208;2022-09-20T06:53:27;17.50;;;5.40;;
70829;SDS011;58451;51.550;7.208;2022-09-20T06:55:59;17.10;;;5.50;;
70829;SDS011;58451;51.550;7.208;2022-09-20T06:58:27;16.20;;;5.80;;
70829;SDS011;58451;51.550;7.208;2022-09-20T07:00:54;16.80;;;6.10;;
70829;SDS011;58451;51.550;7.208;2022-09-20T07:03:21;9.00;;;3.40;;
70829;SDS011;58451;51.550;7.208;2022-09-20T07:05:48;15.00;;;4.80;;
70829;SDS011;58451;51.550;7.208;2022-09-20T07:08:15;10.10;;;4.20;;
70829;SDS011;58451;51.550;7.208;2022-09-20T07:10:42;12.10;;;3.60;;
70829;SDS011;58451;51.550;7.208;2022-09-20T07:13:10;11.30;;;3.60;;
70829;SDS011;58451;51.550;7.208;2022-09-20T07:15:39;11.90;;;3.50;;
70829;SDS011;58451;51.550;7.208;2022-09-20T07:18:06;10.70;;;3.90;;
70829;SDS011;58451;51.550;7.208;2022-09-20T07:20:33;10.60;;;3.30;;
70829;SDS011;58451;51.550;7.208;2022-09-20T07:23:01;10.40;;;3.20;;
70829;SDS011;58451;51.550;7.208;2022-09-20T07:25:29;11.30;;;3.10;;
70829;SDS011;58451;51.550;7.208;2022-09-20T07:27:56;14.50;;;3.10;;
70829;SDS011;58451;51.550;7.208;2022-09-20T07:30:24;14.30;;;4.40;;
70829;SDS011;58451;51.550;7.208;2022-09-20T07:32:51;11.90;;;3.20;;
70829;SDS011;58451;51.550;7.208;2022-09-20T07:35:18;11.40;;;4.00;;
70829;SDS011;58451;51.550;7.208;2022-09-20T07:37:44;10.60;;;3.30;;
70829;SDS011;58451;51.550;7.208;2022-09-20T07:40:12;14.50;;;4.50;;
70829;SDS011;58451;51.550;7.208;2022-09-20T07:42:41;13.00;;;4.10;;
70829;SDS011;58451;51.550;7.208;2022-09-20T07:45:10;11.40;;;3.60;;
70829;SDS011;58451;51.550;7.208;2022-09-20T07:47:38;12.30;;;4.00;;
70829;SDS011;58451;51.550;7.208;2022-09-20T07:50:07;12.60;;;3.10;;
70829;SDS011;58451;51.550;7.208;2022-09-20T07:52:37;12.30;;;3.70;;
70829;SDS011;58451;51.550;7.208;2022-09-20T07:55:04;12.90;;;3.60;;
70829;SDS011;58451;51.550;7.208;2022-09-20T07:57:34;11.00;;;3.00;;
70829;SDS011;58451;51.550;7.208;2022-09-20T08:00:05;10.40;;;3.90;;
70829;SDS011;58451;51.550;7.208;2022-09-20T08:02:37;11.50;;;4.00;;
70829;SDS011;58451;51.550;7.208;2022-09-20T08:05:05;11.40;;;4.40;;
70829;SDS011;58451;51.550;7.208;2022-09-20T08:07:32;11.60;;;4.70;;
70829;SDS011;58451;51.550;7.208;2022-09-20T08:09:59;13.30;;;4.40;;
70829;SDS011;58451;51.550;7.208;2022-09-20T08:12:26;11.10;;;4.30;;
70829;SDS011;58451;51.550;7.208;2022-09-20T08:15:13;12.60;;;4.00;;
70829;SDS011;58451;51.550;7.208;2022-09-20T08:17:40;11.10;;;4.60;;
70829;SDS011;58451;51.550;7.208;2022-09-20T08:20:07;11.30;;;4.40;;
70829;SDS011;58451;51.550;7.208;2022-09-20T08:22:35;14.10;;;4.10;;
70829;SDS011;58451;51.550;7.208;2022-09-20T08:25:05;13.30;;;5.70;;
70829;SDS011;58451;51.550;7.208;2022-09-20T08:27:32;12.50;;;4.40;;
70829;SDS011;58451;51.550;7.208;2022-09-20T08:29:59;10.80;;;4.30;;
70829;SDS011;58451;51.550;7.208;2022-09-20T08:32:26;11.30;;;4.30;;
70829;SDS011;58451;51.550;7.208;2022-09-20T08:34:53;13.40;;;5.30;;
70829;SDS011;58451;51.550;7.208;2022-09-20T08:37:20;8.40;;;3.00;;
70829;SDS011;58451;51.550;7.208;2022-09-20T08:39:46;9.00;;;2.50;;
70829;SDS011;58451;51.550;7.208;2022-09-20T08:42:31;8.40;;;2.10;;
70829;SDS011;58451;51.550;7.208;2022-09-20T08:45:16;8.20;;;2.00;;
70829;SDS011;58451;51.550;7.208;2022-09-20T08:48:01;8.20;;;1.70;;
70829;SDS011;58451;51.550;7.208;2022-09-20T08:50:32;7.00;;;1.60;;
70829;SDS011;58451;51.550;7.208;2022-09-20T08:53:02;7.50;;;1.80;;
70829;SDS011;58451;51.550;7.208;2022-09-20T08:55:30;6.00;;;1.60;;
70829;SDS011;58451;51.550;7.208;2022-09-20T08:58:03;7.00;;;1.70;;
70829;SDS011;58451;51.550;7.208;2022-09-20T09:00:35;7.50;;;1.70;;
70829;SDS011;58451;51.550;7.208;2022-09-20T09:03:10;7.90;;;1.70;;
70829;SDS011;58451;51.550;7.208;2022-09-20T09:05:52;7.90;;;1.80;;
70829;SDS011;58451;51.550;7.208;2022-09-20T09:08:27;4.60;;;1.10;;
70829;SDS011;58451;51.550;7.208;2022-09-20T09:10:58;6.40;;;1.20;;
70829;SDS011;58451;51.550;7.208;2022-09-20T09:13:51;7.30;;;1.20;;
70829;SDS011;58451;51.550;7.208;2022-09-20T09:16:21;9.20;;;1.10;;
70829;SDS011;58451;51.550;7.208;2022-09-20T09:19:29;7.70;;;1.00;;
70829;SDS011;58451;51.550;7.208;2022-09-20T09:22:02;4.40;;;0.80;;
70829;SDS011;58451;51.550;7.208;2022-09-20T09:24:31;6.20;;;1.10;;
70829;SDS011;58451;51.550;7.208;2022-09-20T09:27:27;5.60;;;1.00;;
70829;SDS011;58451;51.550;7.208;2022-09-20T09:29:55;7.10;;;0.80;;
70829;SDS011;58451;51.550;7.208;2022-09-20T09:34:54;9.70;;;2.30;;
70829;SDS011;58451;51.550;7.208;2022-09-20T09:37:28;5.90;;;1.00;;
70829;SDS011;58451;51.550;7.208;2022-09-20T09:45:25;7.60;;;1.30;;
70829;SDS011;58451;51.550;7.208;2022-09-20T09:47:57;5.30;;;0.90;;
70829;SDS011;58451;51.550;7.208;2022-09-20T09:50:29;7.20;;;0.90;;
70829;SDS011;58451;51.550;7.208;2022-09-20T09:53:11;4.00;;;0.70;;
70829;SDS011;58451;51.550;7.208;2022-09-20T09:56:09;7.50;;;1.00;;
70829;SDS011;58451;51.550;7.208;2022-09-20T10:01:58;6.20;;;0.70;;
70829;SDS011;58451;51.550;7.208;2022-09-20T10:04:41;2.10;;;0.60;;
70829;SDS011;58451;51.550;7.208;2022-09-20T10:12:41;5.70;;;0.80;;
70829;SDS011;58451;51.550;7.208;2022-09-20T10:15:35;4.10;;;0.70;;
70829;SDS011;58451;51.550;7.208;2022-09-20T10:18:30;3.70;;;0.50;;
70829;SDS011;58451;51.550;7.208;2022-09-20T10:30:14;3.20;;;0.50;;
70829;SDS011;58451;51.550;7.208;2022-09-20T10:33:30;2.50;;;0.60;;
70829;SDS011;58451;51.550;7.208;2022-09-20T10:41:48;3.70;;;0.60;;
70829;SDS011;58451;51.550;7.208;2022-09-20T10:48:04;5.80;;;0.80;;
70829;SDS011;58451;51.550;7.208;2022-09-20T11:21:48;4.70;;;0.90;;
70829;SDS011;58451;51.550;7.208;2022-09-20T11:27:25;4.50;;;0.70;;
70829;SDS011;58451;51.550;7.208;2022-09-20T11:30:04;4.90;;;0.70;;
70829;SDS011;58451;51.550;7.208;2022-09-20T11:33:11;3.70;;;0.80;;
70829;SDS011;58451;51.550;7.208;2022-09-20T11:35:42;3.70;;;0.70;;
70829;SDS011;58451;51.550;7.208;2022-09-20T11:38:38;4.80;;;0.70;;
70829;SDS011;58451;51.550;7.208;2022-09-20T11:41:29;4.30;;;0.60;;
70829;SDS011;58451;51.550;7.208;2022-09-20T11:44:05;4.70;;;0.80;;
70829;SDS011;58451;51.550;7.208;2022-09-20T11:47:02;3.10;;;0.40;;
70829;SDS011;58451;51.550;7.208;2022-09-20T11:49:59;4.20;;;0.50;;
70829;SDS011;58451;51.550;7.208;2022-09-20T11:55:56;2.70;;;0.40;;
70829;SDS011;58451;51.550;7.208;2022-09-20T11:58:47;4.20;;;0.70;;
70829;SDS011;58451;51.550;7.208;2022-09-20T12:01:42;2.70;;;0.50;;
70829;SDS011;58451;51.550;7.208;2022-09-20T12:07:15;2.00;;;0.50;;
70829;SDS011;58451;51.550;7.208;2022-09-20T12:10:00;3.60;;;0.70;;
70829;SDS011;58451;51.550;7.208;2022-09-20T12:15:22;3.10;;;0.50;;
70829;SDS011;58451;51.550;7.208;2022-09-20T12:26:08;2.70;;;0.50;;
70829;SDS011;58451;51.550;7.208;2022-09-20T12:36:39;3.00;;;0.60;;
70829;SDS011;58451;51.550;7.208;2022-09-20T12:41:43;4.30;;;0.50;;
70829;SDS011;58451;51.550;7.208;2022-09-20T12:47:14;3.80;;;0.50;;
70829;SDS011;58451;51.550;7.208;2022-09-20T13:03:43;3.00;;;0.80;;
70829;SDS011;58451;51.550;7.208;2022-09-20T13:14:23;4.80;;;0.70;;
70829;SDS011;58451;51.550;7.208;2022-09-20T13:19:44;1.80;;;0.50;;
70829;SDS011;58451;51.550;7.208;2022-09-20T13:22:30;2.80;;;0.50;;
70829;SDS011;58451;51.550;7.208;2022-09-20T13:25:05;2.50;;;0.40;;
70829;SDS011;58451;51.550;7.208;2022-09-20T13:28:14;2.50;;;0.40;;
70829;SDS011;58451;51.550;7.208;2022-09-20T13:30:50;3.00;;;0.40;;
70829;SDS011;58451;51.550;7.208;2022-09-20T13:33:46;3.30;;;0.40;;
70829;SDS011;58451;51.550;7.208;2022-09-20T13:36:18;2.70;;;0.50;;
70829;SDS011;58451;51.550;7.208;2022-09-20T13:38:52;2.90;;;0.40;;
70829;SDS011;58451;51.550;7.208;2022-09-20T13:41:22;3.20;;;0.60;;
70829;SDS011;58451;51.550;7.208;2022-09-20T13:43:53;2.10;;;0.40;;
70829;SDS011;58451;51.550;7.208;2022-09-20T13:48:57;3.00;;;0.30;;
70829;SDS011;58451;51.550;7.208;2022-09-20T13:51:35;3.40;;;0.60;;
70829;SDS011;58451;51.550;7.208;2022-09-20T13:54:29;5.20;;;0.60;;
70829;SDS011;58451;51.550;7.208;2022-09-20T13:57:00;4.90;;;0.70;;
70829;SDS011;58451;51.550;7.208;2022-09-20T13:59:35;3.10;;;0.40;;
70829;SDS011;58451;51.550;7.208;2022-09-20T14:02:26;2.00;;;0.40;;
70829;SDS011;58451;51.550;7.208;2022-09-20T14:04:59;4.20;;;0.40;;
70829;SDS011;58451;51.550;7.208;2022-09-20T14:07:31;2.80;;;0.40;;
70829;SDS011;58451;51.550;7.208;2022-09-20T14:09:59;3.30;;;0.40;;
70829;SDS011;58451;51.550;7.208;2022-09-20T14:12:26;4.90;;;0.60;;
70829;SDS011;58451;51.550;7.208;2022-09-20T14:14:54;4.10;;;0.40;;
70829;SDS011;58451;51.550;7.208;2022-09-20T14:17:22;3.70;;;0.60;;
70829;SDS011;58451;51.550;7.208;2022-09-20T14:19:52;3.10;;;0.30;;
70829;SDS011;58451;51.550;7.208;2022-09-20T14:22:24;4.20;;;0.50;;
70829;SDS011;58451;51.550;7.208;2022-09-20T14:27:39;2.80;;;0.30;;
70829;SDS011;58451;51.550;7.208;2022-09-20T14:30:30;6.90;;;0.60;;
70829;SDS011;58451;51.550;7.208;2022-09-20T14:33:02;3.90;;;0.50;;
70829;SDS011;58451;51.550;7.208;2022-09-20T14:35:31;2.30;;;0.40;;
70829;SDS011;58451;51.550;7.208;2022-09-20T14:38:06;3.90;;;0.50;;
70829;SDS011;58451;51.550;7.208;2022-09-20T14:40:44;4.40;;;0.50;;
70829;SDS011;58451;51.550;7.208;2022-09-20T14:43:34;5.10;;;0.50;;
70829;SDS011;58451;51.550;7.208;2022-09-20T14:46:04;3.60;;;0.50;;
70829;SDS011;58451;51.550;7.208;2022-09-20T14:48:38;4.50;;;0.60;;
70829;SDS011;58451;51.550;7.208;2022-09-20T14:53:46;2.80;;;0.60;;
70829;SDS011;58451;51.550;7.208;2022-09-20T14:56:33;4.00;;;0.60;;
70829;SDS011;58451;51.550;7.208;2022-09-20T15:01:33;2.70;;;0.50;;
70829;SDS011;58451;51.550;7.208;2022-09-20T15:04:07;3.00;;;0.60;;
70829;SDS011;58451;51.550;7.208;2022-09-20T15:06:36;3.00;;;0.60;;
70829;SDS011;58451;51.550;7.208;2022-09-20T15:09:05;6.00;;;0.90;;
70829;SDS011;58451;51.550;7.208;2022-09-20T15:11:37;3.70;;;0.40;;
70829;SDS011;58451;51.550;7.208;2022-09-20T15:14:06;4.40;;;0.70;;
70829;SDS011;58451;51.550;7.208;2022-09-20T15:16:34;2.70;;;0.60;;
70829;SDS011;58451;51.550;7.208;2022-09-20T15:19:01;2.10;;;0.40;;
70829;SDS011;58451;51.550;7.208;2022-09-20T15:21:30;3.90;;;0.70;;
70829;SDS011;58451;51.550;7.208;2022-09-20T15:23:57;3.90;;;0.60;;
70829;SDS011;58451;51.550;7.208;2022-09-20T15:26:24;3.80;;;0.60;;
70829;SDS011;58451;51.550;7.208;2022-09-20T15:28:51;3.70;;;0.70;;
70829;SDS011;58451;51.550;7.208;2022-09-20T15:31:18;4.00;;;0.60;;
70829;SDS011;58451;51.550;7.208;2022-09-20T15:33:45;4.40;;;0.70;;
70829;SDS011;58451;51.550;7.208;2022-09-20T15:36:12;5.20;;;0.60;;
70829;SDS011;58451;51.550;7.208;2022-09-20T15:38:39;4.00;;;0.80;;
70829;SDS011;58451;51.550;7.208;2022-09-20T15:41:06;1.90;;;0.40;;
70829;SDS011;58451;51.550;7.208;2022-09-20T15:43:33;4.30;;;0.70;;
70829;SDS011;58451;51.550;7.208;2022-09-20T15:46:17;4.60;;;0.80;;
70829;SDS011;58451;51.550;7.208;2022-09-20T15:48:46;3.80;;;0.70;;
70829;SDS011;58451;51.550;7.208;2022-09-20T15:51:15;5.30;;;0.50;;
70829;SDS011;58451;51.550;7.208;2022-09-20T15:53:52;4.30;;;0.60;;
70829;SDS011;58451;51.550;7.208;2022-09-20T15:56:34;2.70;;;0.60;;
70829;SDS011;58451;51.550;7.208;2022-09-20T15:59:10;4.00;;;0.50;;
70829;SDS011;58451;51.550;7.208;2022-09-20T16:01:41;3.60;;;0.50;;
70829;SDS011;58451;51.550;7.208;2022-09-20T16:04:19;4.60;;;0.60;;
70829;SDS011;58451;51.550;7.208;2022-09-20T16:06:47;2.90;;;0.50;;
70829;SDS011;58451;51.550;7.208;2022-09-20T16:09:16;3.90;;;0.50;;
70829;SDS011;58451;51.550;7.208;2022-09-20T16:11:44;3.30;;;0.40;;
70829;SDS011;58451;51.550;7.208;2022-09-20T16:14:13;3.30;;;0.60;;
70829;SDS011;58451;51.550;7.208;2022-09-20T16:16:40;2.80;;;0.50;;
70829;SDS011;58451;51.550;7.208;2022-09-20T16:19:10;3.40;;;0.50;;
70829;SDS011;58451;51.550;7.208;2022-09-20T16:21:46;2.40;;;0.40;;
70829;SDS011;58451;51.550;7.208;2022-09-20T16:24:33;5.40;;;0.70;;
70829;SDS011;58451;51.550;7.208;2022-09-20T16:27:05;5.10;;;0.80;;
70829;SDS011;58451;51.550;7.208;2022-09-20T16:29:34;1.50;;;0.30;;
70829;SDS011;58451;51.550;7.208;2022-09-20T16:32:02;4.40;;;0.60;;
70829;SDS011;58451;51.550;7.208;2022-09-20T16:34:35;3.60;;;0.50;;
70829;SDS011;58451;51.550;7.208;2022-09-20T16:37:10;3.80;;;0.40;;
70829;SDS011;58451;51.550;7.208;2022-09-20T16:39:41;1.80;;;0.30;;
70829;SDS011;58451;51.550;7.208;2022-09-20T16:42:10;1.90;;;0.40;;
70829;SDS011;58451;51.550;7.208;2022-09-20T16:44:40;2.50;;;0.40;;
70829;SDS011;58451;51.550;7.208;2022-09-20T16:47:13;2.20;;;0.40;;
70829;SDS011;58451;51.550;7.208;2022-09-20T16:49:48;2.70;;;0.30;;
70829;SDS011;58451;51.550;7.208;2022-09-20T16:52:15;3.60;;;0.50;;
70829;SDS011;58451;51.550;7.208;2022-09-20T16:54:43;2.60;;;0.40;;
70829;SDS011;58451;51.550;7.208;2022-09-20T16:57:10;2.30;;;0.40;;
70829;SDS011;58451;51.550;7.208;2022-09-20T16:59:38;1.90;;;0.30;;
70829;SDS011;58451;51.550;7.208;2022-09-20T17:02:07;2.50;;;0.40;;
70829;SDS011;58451;51.550;7.208;2022-09-20T17:04:38;1.10;;;0.40;;
70829;SDS011;58451;51.550;7.208;2022-09-20T17:07:05;3.70;;;0.50;;
70829;SDS011;58451;51.550;7.208;2022-09-20T17:09:33;3.70;;;0.40;;
70829;SDS011;58451;51.550;7.208;2022-09-20T17:12:00;2.70;;;0.40;;
70829;SDS011;58451;51.550;7.208;2022-09-20T17:14:29;4.90;;;0.50;;
70829;SDS011;58451;51.550;7.208;2022-09-20T17:16:56;2.50;;;0.50;;
70829;SDS011;58451;51.550;7.208;2022-09-20T17:19:23;3.40;;;0.60;;
70829;SDS011;58451;51.550;7.208;2022-09-20T17:21:51;2.10;;;0.40;;
70829;SDS011;58451;51.550;7.208;2022-09-20T17:24:20;4.90;;;1.30;;
70829;SDS011;58451;51.550;7.208;2022-09-20T17:26:49;2.80;;;0.60;;
70829;SDS011;58451;51.550;7.208;2022-09-20T17:29:18;5.20;;;0.60;;
70829;SDS011;58451;51.550;7.208;2022-09-20T17:31:51;5.20;;;0.70;;
70829;SDS011;58451;51.550;7.208;2022-09-20T17:34:24;4.20;;;0.50;;
70829;SDS011;58451;51.550;7.208;2022-09-20T17:36:52;2.50;;;0.50;;
70829;SDS011;58451;51.550;7.208;2022-09-20T17:39:21;3.90;;;0.60;;
70829;SDS011;58451;51.550;7.208;2022-09-20T17:41:49;2.10;;;0.50;;
70829;SDS011;58451;51.550;7.208;2022-09-20T17:44:16;4.30;;;0.60;;
70829;SDS011;58451;51.550;7.208;2022-09-20T17:46:45;4.60;;;0.80;;
70829;SDS011;58451;51.550;7.208;2022-09-20T17:49:15;1.80;;;0.50;;
70829;SDS011;58451;51.550;7.208;2022-09-20T17:51:49;5.90;;;0.60;;
70829;SDS011;58451;51.550;7.208;2022-09-20T17:54:20;5.60;;;0.60;;
70829;SDS011;58451;51.550;7.208;2022-09-20T17:56:51;4.50;;;0.50;;
70829;SDS011;58451;51.550;7.208;2022-09-20T17:59:21;5.10;;;0.60;;
70829;SDS011;58451;51.550;7.208;2022-09-20T18:01:49;2.70;;;0.60;;
70829;SDS011;58451;51.550;7.208;2022-09-20T18:04:17;4.10;;;0.80;;
70829;SDS011;58451;51.550;7.208;2022-09-20T18:06:48;4.60;;;0.60;;
70829;SDS011;58451;51.550;7.208;2022-09-20T18:09:19;2.50;;;0.60;;
70829;SDS011;58451;51.550;7.208;2022-09-20T18:11:51;6.10;;;0.80;;
70829;SDS011;58451;51.550;7.208;2022-09-20T18:14:21;3.70;;;0.70;;
70829;SDS011;58451;51.550;7.208;2022-09-20T18:16:51;3.50;;;0.80;;
70829;SDS011;58451;51.550;7.208;2022-09-20T18:19:19;4.90;;;1.00;;
70829;SDS011;58451;51.550;7.208;2022-09-20T18:21:48;6.20;;;1.10;;
70829;SDS011;58451;51.550;7.208;2022-09-20T18:24:15;4.70;;;0.90;;
70829;SDS011;58451;51.550;7.208;2022-09-20T18:26:42;4.60;;;0.80;;
70829;SDS011;58451;51.550;7.208;2022-09-20T18:29:14;5.60;;;1.00;;
70829;SDS011;58451;51.550;7.208;2022-09-20T18:31:48;4.90;;;0.90;;
70829;SDS011;58451;51.550;7.208;2022-09-20T18:34:18;9.80;;;1.30;;
70829;SDS011;58451;51.550;7.208;2022-09-20T18:36:58;4.60;;;1.10;;
70829;SDS011;58451;51.550;7.208;2022-09-20T18:39:31;5.20;;;1.40;;
70829;SDS011;58451;51.550;7.208;2022-09-20T18:42:00;5.10;;;1.40;;
70829;SDS011;58451;51.550;7.208;2022-09-20T18:44:27;5.50;;;0.90;;
70829;SDS011;58451;51.550;7.208;2022-09-20T18:46:58;6.00;;;0.90;;
70829;SDS011;58451;51.550;7.208;2022-09-20T18:49:26;6.60;;;1.00;;
70829;SDS011;58451;51.550;7.208;2022-09-20T18:51:54;4.80;;;0.90;;
70829;SDS011;58451;51.550;7.208;2022-09-20T18:54:22;4.90;;;0.90;;
70829;SDS011;58451;51.550;7.208;2022-09-20T18:56:49;5.60;;;1.30;;
70829;SDS011;58451;51.550;7.208;2022-09-20T19:10:24;8.40;;;1.70;;
70829;SDS011;58451;51.550;7.208;2022-09-20T19:13:23;6.10;;;1.70;;
70829;SDS011;58451;51.550;7.208;2022-09-20T19:16:21;7.90;;;2.10;;
70829;SDS011;58451;51.550;7.208;2022-09-20T19:21:57;7.60;;;2.50;;
70829;SDS011;58451;51.550;7.208;2022-09-20T19:27:13;9.00;;;2.50;;
70829;SDS011;58451;51.550;7.208;2022-09-20T19:29:40;6.30;;;2.20;;
70829;SDS011;58451;51.550;7.208;2022-09-20T19:32:13;10.30;;;2.30;;
70829;SDS011;58451;51.550;7.208;2022-09-20T19:34:51;8.80;;;2.90;;
70829;SDS011;58451;51.550;7.208;2022-09-20T19:40:41;6.20;;;2.30;;
70829;SDS011;58451;51.550;7.208;2022-09-20T19:50:42;10.10;;;2.60;;
70829;SDS011;58451;51.550;7.208;2022-09-20T19:52:43;8.70;;;2.20;;
70829;SDS011;58451;51.550;7.208;2022-09-20T19:55:11;6.60;;;2.40;;
70829;SDS011;58451;51.550;7.208;2022-09-20T19:57:43;9.10;;;2.80;;
70829;SDS011;58451;51.550;7.208;2022-09-20T20:00:14;7.70;;;2.50;;
70829;SDS011;58451;51.550;7.208;2022-09-20T20:02:44;9.10;;;2.70;;
70829;SDS011;58451;51.550;7.208;2022-09-20T20:05:17;13.70;;;3.60;;
70829;SDS011;58451;51.550;7.208;2022-09-20T20:08:13;10.60;;;2.80;;
70829;SDS011;58451;51.550;7.208;2022-09-20T20:10:53;8.50;;;2.50;;
70829;SDS011;58451;51.550;7.208;2022-09-20T20:13:43;8.60;;;2.80;;
70829;SDS011;58451;51.550;7.208;2022-09-20T20:19:39;7.50;;;2.60;;
70829;SDS011;58451;51.550;7.208;2022-09-20T20:22:18;10.30;;;3.20;;
70829;SDS011;58451;51.550;7.208;2022-09-20T20:24:54;9.10;;;2.80;;
70829;SDS011;58451;51.550;7.208;2022-09-20T20:27:25;8.80;;;2.80;;
70829;SDS011;58451;51.550;7.208;2022-09-20T20:29:54;8.60;;;3.00;;
70829;SDS011;58451;51.550;7.208;2022-09-20T20:32:21;9.40;;;2.60;;
70829;SDS011;58451;51.550;7.208;2022-09-20T20:34:48;8.80;;;2.50;;
70829;SDS011;58451;51.550;7.208;2022-09-20T20:37:15;10.30;;;2.90;;
70829;SDS011;58451;51.550;7.208;2022-09-20T20:39:49;8.60;;;2.70;;
70829;SDS011;58451;51.550;7.208;2022-09-20T20:42:16;10.20;;;3.50;;
70829;SDS011;58451;51.550;7.208;2022-09-20T20:44:42;9.00;;;3.00;;
70829;SDS011;58451;51.550;7.208;2022-09-20T20:47:09;10.90;;;3.00;;
70829;SDS011;58451;51.550;7.208;2022-09-20T20:49:36;9.70;;;3.10;;
70829;SDS011;58451;51.550;7.208;2022-09-20T20:52:04;9.90;;;3.20;;
70829;SDS011;58451;51.550;7.208;2022-09-20T20:54:31;9.50;;;3.10;;
70829;SDS011;58451;51.550;7.208;2022-09-20T20:56:58;11.10;;;3.70;;
70829;SDS011;58451;51.550;7.208;2022-09-20T20:59:25;11.50;;;3.60;;
70829;SDS011;58451;51.550;7.208;2022-09-20T21:01:52;10.30;;;3.60;;
70829;SDS011;58451;51.550;7.208;2022-09-20T21:04:19;10.20;;;3.30;;
70829;SDS011;58451;51.550;7.208;2022-09-20T21:06:47;9.30;;;3.10;;
70829;SDS011;58451;51.550;7.208;2022-09-20T21:09:15;14.30;;;3.70;;
70829;SDS011;58451;51.550;7.208;2022-09-20T21:11:42;10.30;;;3.30;;
70829;SDS011;58451;51.550;7.208;2022-09-20T21:14:10;10.00;;;3.40;;
70829;SDS011;58451;51.550;7.208;2022-09-20T21:16:40;9.90;;;3.40;;
70829;SDS011;58451;51.550;7.208;2022-09-20T21:19:09;8.90;;;3.10;;
70829;SDS011;58451;51.550;7.208;2022-09-20T21:21:45;9.70;;;3.50;;
70829;SDS011;58451;51.550;7.208;2022-09-20T21:24:15;15.90;;;4.40;;
70829;SDS011;58451;51.550;7.208;2022-09-20T21:26:45;12.20;;;4.20;;
70829;SDS011;58451;51.550;7.208;2022-09-20T21:29:14;11.30;;;4.10;;
70829;SDS011;58451;51.550;7.208;2022-09-20T21:31:44;11.10;;;3.90;;
70829;SDS011;58451;51.550;7.208;2022-09-20T21:34:13;12.90;;;4.60;;
70829;SDS011;58451;51.550;7.208;2022-09-20T21:36:41;14.90;;;4.30;;
70829;SDS011;58451;51.550;7.208;2022-09-20T21:39:10;13.20;;;5.40;;